TDPD/DOM METAR and TAF weather

Enter ICAO airport designator
Station Type Date Time Source
TDPD METAR 2020/07/11 22:00 UTC NOAA

TDPD 112200Z 10008KT 9999 BKN015 FEW/// 28/26 Q1014


Station Type Date Time Source
TDPD Decoded METAR 2020/07/11 22:00 UTC NOAA

Melville Hall Airport, Dominica (TDPD) 15-32N 061-18W 14M
Jul 11, 2020 - 06:00 PM EDT / 2020.07.11 2200 UTC
Wind: from the E (100 degrees) at 9 MPH (8 KT):0
Visibility: greater than 7 mile(s):0
Sky conditions: mostly cloudy
Temperature: 82 F (28 C)
Dew Point: 78 F (26 C)
Relative Humidity: 88%
Pressure (altimeter): 29.94 in. Hg (1014 hPa)
ob: TDPD 112200Z 10008KT 9999 BKN015 FEW/// 28/26 Q1014
cycle: 22

Station Type Date Time Source
TDPD TAF 2020/07/11 18:13 UTC NOAA

TAF TDPD 111700Z 1118/1218 11012KT 9999 SCT018

Example: see airport list